Flight Track Log - Related Links

Times and Time Zones

All times are in EDT time to prevent confusion due to time zone crossing. See the SWA350 flight status page for this flight to view local times or setup timezone preferences in your user account.

Time Position Orientation Groundspeed Altitude Reporting Facility
EDT Latitude Longitude Course Direction KTS MPH feet Rate Location/Type
Fri 07:27:26 AM 39.7000 -86.3167 237° Southwest 167 192 1,500  Level Indianapolis TRACON
Fri 07:28:08 AM 39.6833 -86.3500 237° Southwest 192 221 2,900 2,155 Climbing Indianapolis TRACON
Fri 07:29:09 AM 39.6500 -86.4333 243° Southwest 234 269 5,200 2,647 Climbing Indianapolis TRACON
Fri 07:30:24 AM 39.6306 -86.5336 256° West 238 274 8,900 2,338 Climbing Indianapolis Center
Fri 07:31:25 AM 39.6211 -86.6231 262° West 242 278 10,500 1,525 Climbing Indianapolis Center
Fri 07:32:26 AM 39.6222 -86.7372 271° West 274 315 12,000 1,721 Climbing Indianapolis Center
Fri 07:33:27 AM 39.6222 -86.8614 270° West 307 353 14,000 2,016 Climbing Indianapolis Center
Fri 07:34:28 AM 39.6208 -86.9917 269° West 331 381 16,100 1,805 Climbing Indianapolis Center
Fri 07:35:30 AM 39.6192 -87.1258 269° West 348 400 17,700 1,707 Climbing Indianapolis Center
Fri 07:36:31 AM 39.6189 -87.2639 270° West 363 418 19,600 1,770 Climbing Indianapolis Center
Fri 07:37:32 AM 39.6167 -87.4036 269° West 374 430 21,300 1,659 Climbing Indianapolis Center
Fri 07:38:34 AM 39.6144 -87.5450 269° West 381 438 23,000 1,415 Climbing Indianapolis Center
Fri 07:39:35 AM 39.6114 -87.6878 268° West 388 447 24,200 1,623 Climbing Indianapolis Center
Fri 07:40:36 AM 39.6097 -87.8586 269° West 393 452 26,300 1,512 Climbing Indianapolis Center
Fri 07:41:38 AM 39.6064 -87.9983 268° West 391 450 27,300 1,366 Climbing Indianapolis Center
Fri 07:42:39 AM 39.6042 -88.1414 269° West 392 451 29,100 1,571 Climbing Indianapolis Center
Fri 07:43:44 AM 39.6008 -88.2850 268° West 392 451 30,600 1,381 Climbing Kansas City Center
Fri 07:44:45 AM 39.5969 -88.4222 268° West 385 443 32,000 1,366 Climbing Kansas City Center
Fri 07:45:47 AM 39.5942 -88.5572 269° West 380 437 33,400 992 Climbing Kansas City Center
Fri 07:46:46 AM 39.5911 -88.7036 268° West 378 435 34,000 293 Climbing Kansas City Center
Fri 07:47:50 AM 39.5914 -88.8397 270° West 378 435 34,000  Level Kansas City Center
Fri 07:48:51 AM 39.6283 -88.9678 291° West 378 435 34,000  Level Kansas City Center
Fri 07:49:49 AM 39.6672 -89.0975 291° West 381 438 34,000  Level Kansas City Center
Fri 07:50:50 AM 39.7053 -89.2233 291° West 377 434 34,000  Level Kansas City Center
Fri 07:51:51 AM 39.7428 -89.3508 291° West 377 434 34,000  Level Kansas City Center
Fri 07:52:54 AM 39.7811 -89.4789 291° West 379 436 34,000  Level Kansas City Center
Fri 07:53:53 AM 39.8206 -89.6114 291° West 386 444 34,000  Level Kansas City Center
Fri 07:54:53 AM 39.8483 -89.7494 285° West 396 456 34,000  Level Kansas City Center
Fri 07:55:57 AM 39.8628 -89.8889 278° West 388 447 34,000  Level Kansas City Center
Fri 07:56:58 AM 39.8792 -90.0272 279° West 386 444 34,000  Level Kansas City Center
Fri 07:57:59 AM 39.8942 -90.1661 278° West 386 444 34,000  Level Kansas City Center
Fri 07:58:57 AM 39.9089 -90.3050 278° West 385 443 34,000  Level Kansas City Center
Fri 08:00:01 AM 39.9253 -90.4447 279° West 388 447 34,000  Level Kansas City Center
Fri 08:01:02 AM 39.9422 -90.6147 277° West 392 451 34,000  Level Kansas City Center
Fri 08:02:00 AM 39.9575 -90.7536 278° West 389 448 34,000  Level Kansas City Center
Fri 08:03:01 AM 39.9717 -90.8939 278° West 389 448 34,000  Level Kansas City Center
Fri 08:04:02 AM 39.9861 -91.0319 278° West 389 448 34,000  Level Kansas City Center
Fri 08:05:03 AM 39.9989 -91.1681 277° West 384 442 34,000  Level Kansas City Center
Fri 08:06:04 AM 40.0150 -91.3061 279° West 386 444 34,000  Level Kansas City Center
Fri 08:07:08 AM 40.0261 -91.4439 276° West 386 444 34,000  Level Kansas City Center
Fri 08:08:09 AM 40.0414 -91.5803 278° West 384 442 34,000  Level Kansas City Center
Fri 08:09:09 AM 40.0550 -91.7197 277° West 387 445 34,000  Level Kansas City Center
Fri 08:10:10 AM 40.0683 -91.8581 277° West 388 447 34,000  Level Kansas City Center
Fri 08:11:12 AM 40.0814 -91.9969 277° West 387 445 34,000  Level Kansas City Center
Fri 08:12:13 AM 40.0964 -92.1642 277° West 387 445 34,000  Level Kansas City Center
Fri 08:13:14 AM 40.1097 -92.3033 277° West 387 445 34,000  Level Kansas City Center
Fri 08:14:16 AM 40.1225 -92.4347 277° West 384 442 34,000  Level Kansas City Center
Fri 08:15:16 AM 40.1383 -92.5903 278° West 386 444 34,000  Level Kansas City Center
Fri 08:16:18 AM 40.1775 -92.7161 292° West 390 449 34,000  Level Kansas City Center
Fri 08:17:19 AM 40.2203 -92.8408 294° West 393 452 34,000  Level Kansas City Center
Fri 08:18:19 AM 40.2689 -92.9883 293° West 395 455 34,000  Level Kansas City Center
Fri 08:19:19 AM 40.3131 -93.1147 295° West 399 459 34,000  Level Kansas City Center
Fri 08:20:20 AM 40.3547 -93.2442 293° West 395 455 34,000  Level Kansas City Center
Fri 08:21:21 AM 40.4006 -93.3758 295° West 397 457 34,000  Level Kansas City Center
Fri 08:22:24 AM 40.4447 -93.5083 294° West 398 458 34,000  Level Kansas City Center
Fri 08:23:25 AM 40.4886 -93.6417 293° West 399 459 34,000  Level Kansas City Center
Fri 08:24:37 AM 40.5147 -93.8419 280° West 398 458 34,000  Level Minneapolis Center
Fri 08:25:38 AM 40.5239 -93.9847 275° West 399 459 34,000  Level Minneapolis Center
Fri 08:26:39 AM 40.5344 -94.1281 276° West 399 459 34,000  Level Minneapolis Center
Fri 08:27:41 AM 40.5442 -94.2722 275° West 399 459 34,000  Level Minneapolis Center
Fri 08:28:42 AM 40.5533 -94.4158 275° West 399 459 34,000  Level Minneapolis Center
Fri 08:29:43 AM 40.5633 -94.5675 275° West 399 459 34,000  Level Minneapolis Center
Fri 08:30:44 AM 40.5739 -94.7144 275° West 402 463 34,000  Level Minneapolis Center
Fri 08:31:45 AM 40.5814 -94.8606 274° West 400 460 34,000  Level Minneapolis Center
Fri 08:32:47 AM 40.5903 -95.0053 275° West 398 458 34,000  Level Minneapolis Center
Fri 08:33:48 AM 40.5989 -95.1489 275° West 395 455 34,000  Level Minneapolis Center
Fri 08:34:49 AM 40.6078 -95.2939 275° West 396 456 34,000  Level Minneapolis Center
Fri 08:35:50 AM 40.6181 -95.4697 274° West 400 460 34,000  Level Minneapolis Center
Fri 08:36:52 AM 40.6258 -95.6186 274° West 405 466 34,000  Level Minneapolis Center
Fri 08:37:53 AM 40.6347 -95.7653 275° West 402 463 34,000  Level Minneapolis Center
Fri 08:38:54 AM 40.6422 -95.9125 274° West 402 463 34,000  Level Minneapolis Center
Fri 08:39:55 AM 40.6494 -96.0597 274° West 402 463 34,000  Level Minneapolis Center
Fri 08:40:56 AM 40.6564 -96.2056 274° West 399 459 34,000  Level Minneapolis Center
Fri 08:41:58 AM 40.6642 -96.3508 274° West 397 457 34,000  Level Minneapolis Center
Fri 08:42:59 AM 40.6711 -96.4964 274° West 396 456 34,000  Level Minneapolis Center
Fri 08:44:00 AM 40.6781 -96.6414 274° West 396 456 34,000  Level Minneapolis Center
Fri 08:45:01 AM 40.6839 -96.7850 273° West 393 452 34,000  Level Minneapolis Center
Fri 08:46:02 AM 40.6894 -96.9281 273° West 391 450 34,000  Level Minneapolis Center
Fri 08:47:04 AM 40.6950 -97.0686 273° West 386 444 34,000  Level Minneapolis Center
Fri 08:48:05 AM 40.7011 -97.2069 273° West 380 437 34,000  Level Minneapolis Center
Fri 08:49:18 AM 40.7069 -97.3678 273° West 377 434 34,000  Level Minneapolis Center
Fri 08:50:20 AM 40.7139 -97.5339 273° West 377 434 34,000  Level Minneapolis Center
Fri 08:51:33 AM 40.7189 -97.6731 273° West 380 437 34,000  Level Minneapolis Center
Fri 08:52:34 AM 40.7244 -97.8444 273° West 387 445 34,000  Level Minneapolis Center
Fri 08:53:36 AM 40.7292 -97.9897 273° West 394 453 34,000  Level Minneapolis Center
Fri 08:54:37 AM 40.7342 -98.1353 273° West 396 456 34,000  Level Minneapolis Center
Fri 08:55:38 AM 40.7381 -98.2797 272° West 393 452 34,000  Level Minneapolis Center
Fri 08:56:39 AM 40.7433 -98.4233 273° West 392 451 34,000  Level Minneapolis Center
Fri 08:57:40 AM 40.7472 -98.5669 272° West 391 450 34,000  Level Minneapolis Center
Fri 08:58:42 AM 40.7511 -98.7097 272° West 389 448 34,000  Level Minneapolis Center
Fri 08:59:43 AM 40.7550 -98.8508 272° West 387 445 34,000  Level Minneapolis Center
Fri 09:00:44 AM 40.7586 -99.0208 272° West 387 445 34,000  Level Minneapolis Center
Fri 09:01:46 AM 40.7625 -99.1675 272° West 386 444 34,000  Level Denver Center
Fri 09:02:47 AM 40.7653 -99.3061 272° West 378 435 34,000  Level Denver Center
Fri 09:03:48 AM 40.7689 -99.4425 272° West 372 428 34,000  Level Denver Center
Fri 09:04:48 AM 40.7717 -99.5811 272° West 375 432 34,000  Level Denver Center
Fri 09:05:49 AM 40.7725 -99.7192 271° West 375 432 34,000  Level Denver Center
Fri 09:06:50 AM 40.7747 -99.8506 271° West 374 430 34,000  Level Denver Center
Fri 09:07:51 AM 40.7767 -99.9833 271° West 378 435 34,000  Level Denver Center
Fri 09:08:52 AM 40.7800 -100.1389 272° West 379 436 34,000  Level Denver Center
Fri 09:09:53 AM 40.7744 -100.2706 267° West 378 435 34,000  Level Denver Center
Fri 09:10:54 AM 40.7544 -100.4014 259° West 379 436 34,000  Level Denver Center
Fri 09:11:55 AM 40.7328 -100.5528 259° West 375 432 34,000  Level Denver Center
Fri 09:12:56 AM 40.7128 -100.6839 259° West 375 432 34,000  Level Denver Center
Fri 09:13:56 AM 40.6933 -100.8164 259° West 377 434 34,000  Level Denver Center
Fri 09:14:57 AM 40.6736 -100.9478 259° West 379 436 34,000  Level Denver Center
Fri 09:15:58 AM 40.6514 -101.1000 259° West 379 436 34,000  Level Denver Center
Fri 09:16:59 AM 40.6319 -101.2297 259° West 378 435 34,000  Level Denver Center
Fri 09:18:00 AM 40.6122 -101.3597 259° West 377 434 34,000  Level Denver Center
Fri 09:19:01 AM 40.5889 -101.5108 259° West 376 433 34,000  Level Denver Center
Fri 09:20:02 AM 40.5694 -101.6394 259° West 374 430 34,000  Level Denver Center
Fri 09:21:03 AM 40.5489 -101.7681 258° West 374 430 34,000  Level Denver Center
Fri 09:22:04 AM 40.5256 -101.9183 259° West 375 432 34,000  Level Denver Center
Fri 09:23:05 AM 40.5036 -102.0469 257° West 378 435 34,000  Level Denver Center
Fri 09:24:05 AM 40.4883 -102.1531 259° West 372 428 34,000  Level Denver Center
Fri 09:25:07 AM 40.4594 -102.3247 258° West 376 433 34,000  Level Denver Center
Fri 09:26:07 AM 40.4381 -102.4533 258° West 376 433 34,000  Level Denver Center
Fri 09:27:08 AM 40.4142 -102.6014 258° West 374 430 34,000  Level Denver Center
Fri 09:28:09 AM 40.3942 -102.7217 258° West 374 430 34,000  Level Denver Center
Fri 09:29:10 AM 40.3711 -102.8558 257° West 373 429 34,000  Level Denver Center
Fri 09:30:11 AM 40.3494 -102.9894 258° West 373 429 34,000 -1,131 Level Denver Center
Fri 09:31:12 AM 40.3269 -103.1242 258° West 375 432 31,700 -2,705 Descending Denver Center
Fri 09:32:13 AM 40.3033 -103.2603 257° West 379 436 28,500 -2,902 Descending Denver Center
Fri 09:33:14 AM 40.2800 -103.3956 257° West 376 433 25,800 -2,557 Descending Denver Center
Fri 09:34:15 AM 40.2578 -103.5261 257° West 366 421 23,300 -2,410 Descending Denver Center
Fri 09:35:16 AM 40.2364 -103.6506 257° West 349 402 20,900 -1,967 Descending Denver Center
Fri 09:36:17 AM 40.2128 -103.7842 257° West 322 371 19,300 -1,131 Descending Denver Center
Fri 09:37:18 AM 40.2019 -103.8889 262° West 288 331 18,600 -738 Descending Denver Center
Fri 09:38:19 AM 40.1981 -103.9911 267° West 283 326 17,800 -1,180 Descending Denver Center
Fri 09:39:20 AM 40.1922 -104.0964 266° West 272 313 16,200 -1,623 Descending Denver Center
Fri 09:40:21 AM 40.1869 -104.1928 266° West 268 308 14,500 -1,721 Descending Denver Center
Fri 09:41:22 AM 40.1822 -104.2914 266° West 271 312 12,700 -1,426 Descending Denver Center
Fri 09:42:23 AM 40.1628 -104.3814 254° West 263 303 11,600 -1,131 Descending Denver Center
Fri 09:43:24 AM 40.1331 -104.4619 244° Southwest 248 285 10,400 -1,304 Descending Denver Center
Fri 09:43:55 AM 40.1167 -104.5000 241° Southwest 247 284 9,600 -1,385 Descending Denver TRACON
Fri 09:44:55 AM 40.1000 -104.5833 255° West 245 282 8,300 -1,300 Descending Denver TRACON
Fri 09:45:55 AM 40.0500 -104.6333 217° Southwest 240 276 7,000 -848 Descending Denver TRACON
Fri 09:46:27 AM 40.0131 -104.6617 210° Southwest 230 265 7,000 -194 Level Denver Center
Fri 09:47:28 AM 39.9606 -104.6867 200° South 183 211 6,700 -533 Descending Denver Center
Fri 09:48:42 AM 39.9153 -104.6867 180° South 140 161 5,800 -578 Descending Denver Center
Fri 09:49:43 AM 39.8775 -104.6878 181° South 142 163 5,400 -393 Descending Denver Center
Fri 09:52:00 AM 39.8617 -104.6732 194° South  Level Estimated
Fri 09:59:00 AM 39.8617 -104.6732 194° South  Level Estimated

Login

Don't have an account? Register now (free) for customized features, flight alerts, and more!